sensor_id;sensor_type;location;lat;lon;timestamp;pressure;altitude;pressure_sealevel;temperature;humidity
68994;BME280;56054;50.968;5.816;2023-02-10T05:46:40;102859.06;;;2.42;100.00
68994;BME280;56054;50.968;5.816;2023-02-10T06:06:56;102856.38;;;2.14;100.00
68994;BME280;56054;50.968;5.816;2023-02-10T06:10:45;102857.31;;;2.15;100.00
68994;BME280;56054;50.968;5.816;2023-02-10T06:14:06;102859.22;;;2.23;100.00
68994;BME280;56054;50.968;5.816;2023-02-10T08:32:49;102922.94;;;2.86;100.00
68994;BME280;56054;50.968;5.816;2023-02-10T08:36:09;102921.66;;;2.89;100.00
68994;BME280;56054;50.968;5.816;2023-02-10T08:39:17;102927.91;;;2.91;100.00
68994;BME280;56054;50.968;5.816;2023-02-10T08:42:25;102933.97;;;2.92;100.00
68994;BME280;56054;50.968;5.816;2023-02-10T08:45:32;102929.63;;;2.98;100.00
68994;BME280;56054;50.968;5.816;2023-02-10T08:48:41;102926.34;;;2.99;100.00
68994;BME280;56054;50.968;5.816;2023-02-10T08:51:48;102921.41;;;3.00;100.00
68994;BME280;56054;50.968;5.816;2023-02-10T08:54:55;102924.88;;;3.01;100.00
68994;BME280;56054;50.968;5.816;2023-02-10T08:58:02;102922.75;;;3.11;100.00
68994;BME280;56054;50.968;5.816;2023-02-10T09:01:15;102920.78;;;3.16;100.00
68994;BME280;56054;50.968;5.816;2023-02-10T09:04:23;102922.34;;;3.28;100.00
68994;BME280;56054;50.968;5.816;2023-02-10T09:07:30;102925.34;;;3.38;100.00
68994;BME280;56054;50.968;5.816;2023-02-10T09:10:40;102928.88;;;3.46;100.00
68994;BME280;56054;50.968;5.816;2023-02-10T09:13:47;102924.78;;;3.61;100.00
68994;BME280;56054;50.968;5.816;2023-02-10T09:17:02;102938.06;;;3.71;100.00
68994;BME280;56054;50.968;5.816;2023-02-10T09:20:11;102931.88;;;3.83;100.00
68994;BME280;56054;50.968;5.816;2023-02-10T09:23:18;102923.47;;;3.92;100.00
68994;BME280;56054;50.968;5.816;2023-02-10T09:26:25;102929.94;;;3.95;100.00
68994;BME280;56054;50.968;5.816;2023-02-10T09:29:32;102924.03;;;3.96;100.00
68994;BME280;56054;50.968;5.816;2023-02-10T09:32:39;102932.16;;;4.06;100.00
68994;BME280;56054;50.968;5.816;2023-02-10T09:35:46;102940.47;;;4.18;100.00
68994;BME280;56054;50.968;5.816;2023-02-10T09:38:57;102936.31;;;4.33;100.00
68994;BME280;56054;50.968;5.816;2023-02-10T09:45:26;102941.41;;;4.19;100.00
68994;BME280;56054;50.968;5.816;2023-02-10T09:49:39;102945.44;;;4.17;100.00
68994;BME280;56054;50.968;5.816;2023-02-10T09:56:16;102928.97;;;4.43;100.00
68994;BME280;56054;50.968;5.816;2023-02-10T09:59:39;102919.94;;;4.33;100.00
68994;BME280;56054;50.968;5.816;2023-02-10T10:02:54;102932.06;;;4.34;100.00
68994;BME280;56054;50.968;5.816;2023-02-10T10:09:41;102934.34;;;4.52;100.00
68994;BME280;56054;50.968;5.816;2023-02-10T10:12:50;102924.06;;;4.59;100.00
68994;BME280;56054;50.968;5.816;2023-02-10T10:16:21;102949.09;;;4.82;100.00
68994;BME280;56054;50.968;5.816;2023-02-10T10:20:03;102940.09;;;4.78;100.00
68994;BME280;56054;50.968;5.816;2023-02-10T10:23:40;102951.50;;;4.87;100.00
68994;BME280;56054;50.968;5.816;2023-02-10T10:33:58;102948.94;;;5.16;100.00
68994;BME280;56054;50.968;5.816;2023-02-10T10:37:19;102946.94;;;5.28;100.00
68994;BME280;56054;50.968;5.816;2023-02-10T10:40:32;102946.56;;;5.39;100.00
68994;BME280;56054;50.968;5.816;2023-02-10T10:43:48;102948.38;;;5.47;100.00
68994;BME280;56054;50.968;5.816;2023-02-10T10:47:05;102948.34;;;5.62;100.00
68994;BME280;56054;50.968;5.816;2023-02-10T10:50:15;102940.41;;;5.74;100.00
68994;BME280;56054;50.968;5.816;2023-02-10T10:53:42;102936.88;;;5.81;100.00
68994;BME280;56054;50.968;5.816;2023-02-10T11:00:12;102933.81;;;6.21;100.00
68994;BME280;56054;50.968;5.816;2023-02-10T11:03:21;102939.69;;;6.27;99.55
68994;BME280;56054;50.968;5.816;2023-02-10T11:06:33;102933.06;;;6.29;98.37
68994;BME280;56054;50.968;5.816;2023-02-10T11:09:49;102920.03;;;6.43;97.89
68994;BME280;56054;50.968;5.816;2023-02-10T11:12:57;102921.09;;;6.53;96.86
68994;BME280;56054;50.968;5.816;2023-02-10T11:19:26;102927.81;;;6.74;94.98
68994;BME280;56054;50.968;5.816;2023-02-10T11:22:33;102922.34;;;6.86;94.84
68994;BME280;56054;50.968;5.816;2023-02-10T11:25:41;102908.22;;;6.99;93.63
68994;BME280;56054;50.968;5.816;2023-02-10T11:28:49;102905.59;;;6.83;91.66
68994;BME280;56054;50.968;5.816;2023-02-10T11:32:02;102905.69;;;6.92;92.87
68994;BME280;56054;50.968;5.816;2023-02-10T11:35:15;102909.25;;;7.08;91.33
68994;BME280;56054;50.968;5.816;2023-02-10T11:38:24;102908.28;;;7.15;91.18
68994;BME280;56054;50.968;5.816;2023-02-10T11:41:33;102899.31;;;7.43;90.04
68994;BME280;56054;50.968;5.816;2023-02-10T11:44:40;102895.81;;;7.58;89.25
68994;BME280;56054;50.968;5.816;2023-02-10T11:48:22;102882.38;;;7.69;88.67
68994;BME280;56054;50.968;5.816;2023-02-10T11:52:03;102894.16;;;7.75;86.05
68994;BME280;56054;50.968;5.816;2023-02-10T11:55:16;102888.66;;;7.71;86.34
68994;BME280;56054;50.968;5.816;2023-02-10T12:02:54;102876.03;;;7.90;84.84
68994;BME280;56054;50.968;5.816;2023-02-10T12:16:23;102878.63;;;7.90;85.04
68994;BME280;56054;50.968;5.816;2023-02-10T12:26:58;102864.16;;;8.33;86.58
68994;BME280;56054;50.968;5.816;2023-02-10T12:30:31;102849.53;;;8.33;86.30
68994;BME280;56054;50.968;5.816;2023-02-10T12:37:57;102845.53;;;8.44;80.86
68994;BME280;56054;50.968;5.816;2023-02-10T12:41:23;102840.97;;;8.50;82.19
68994;BME280;56054;50.968;5.816;2023-02-10T12:48:41;102836.97;;;8.21;84.65
68994;BME280;56054;50.968;5.816;2023-02-10T12:55:24;102827.47;;;8.12;82.83
68994;BME280;56054;50.968;5.816;2023-02-10T12:58:39;102831.97;;;8.22;81.11
68994;BME280;56054;50.968;5.816;2023-02-10T13:01:51;102822.41;;;8.30;79.41
68994;BME280;56054;50.968;5.816;2023-02-10T13:05:03;102820.44;;;8.36;79.14
68994;BME280;56054;50.968;5.816;2023-02-10T13:08:36;102816.13;;;8.28;78.46
68994;BME280;56054;50.968;5.816;2023-02-10T13:15:35;102814.66;;;8.39;77.96
68994;BME280;56054;50.968;5.816;2023-02-10T13:23:34;102804.50;;;8.40;78.99
68994;BME280;56054;50.968;5.816;2023-02-10T13:36:43;102799.22;;;8.47;79.79
68994;BME280;56054;50.968;5.816;2023-02-10T13:40:03;102789.34;;;8.61;79.26
68994;BME280;56054;50.968;5.816;2023-02-10T13:43:30;102789.16;;;8.50;80.45
68994;BME280;56054;50.968;5.816;2023-02-10T13:46:42;102790.06;;;8.42;79.93
68994;BME280;56054;50.968;5.816;2023-02-10T13:49:59;102782.00;;;8.48;80.64
68994;BME280;56054;50.968;5.816;2023-02-10T13:56:34;102782.66;;;8.54;80.73
68994;BME280;56054;50.968;5.816;2023-02-10T13:59:42;102773.56;;;8.75;79.09
68994;BME280;56054;50.968;5.816;2023-02-10T14:06:18;102761.69;;;8.77;79.43
68994;BME280;56054;50.968;5.816;2023-02-10T14:12:35;102772.94;;;8.69;79.90
68994;BME280;56054;50.968;5.816;2023-02-10T14:15:55;102772.88;;;8.51;79.83
68994;BME280;56054;50.968;5.816;2023-02-10T14:19:30;102771.47;;;8.46;81.19
68994;BME280;56054;50.968;5.816;2023-02-10T14:22:37;102776.06;;;8.49;79.37
68994;BME280;56054;50.968;5.816;2023-02-10T14:25:46;102773.97;;;8.53;80.89
68994;BME280;56054;50.968;5.816;2023-02-10T14:28:54;102778.56;;;8.65;81.19
68994;BME280;56054;50.968;5.816;2023-02-10T14:32:04;102764.09;;;8.67;80.38
68994;BME280;56054;50.968;5.816;2023-02-10T14:35:20;102773.56;;;8.75;79.92
68994;BME280;56054;50.968;5.816;2023-02-10T14:38:32;102764.13;;;8.75;81.05
68994;BME280;56054;50.968;5.816;2023-02-10T14:41:42;102758.59;;;8.72;81.67
68994;BME280;56054;50.968;5.816;2023-02-10T14:44:51;102767.47;;;8.74;81.17
68994;BME280;56054;50.968;5.816;2023-02-10T14:47:59;102763.50;;;8.69;82.04
68994;BME280;56054;50.968;5.816;2023-02-10T14:51:16;102764.69;;;8.64;82.64
68994;BME280;56054;50.968;5.816;2023-02-10T14:54:26;102769.56;;;8.61;83.42
68994;BME280;56054;50.968;5.816;2023-02-10T14:57:32;102779.13;;;8.53;83.91
68994;BME280;56054;50.968;5.816;2023-02-10T15:00:41;102784.88;;;8.42;85.27
68994;BME280;56054;50.968;5.816;2023-02-10T15:03:58;102767.81;;;8.44;85.79
68994;BME280;56054;50.968;5.816;2023-02-10T15:07:05;102776.41;;;8.36;87.53
68994;BME280;56054;50.968;5.816;2023-02-10T15:10:19;102774.28;;;8.32;87.93
68994;BME280;56054;50.968;5.816;2023-02-10T15:13:39;102770.88;;;8.24;90.48
68994;BME280;56054;50.968;5.816;2023-02-10T15:16:48;102782.75;;;8.22;91.47
68994;BME280;56054;50.968;5.816;2023-02-10T15:19:58;102787.94;;;8.22;93.10
68994;BME280;56054;50.968;5.816;2023-02-10T15:23:16;102778.41;;;8.14;93.16
68994;BME280;56054;50.968;5.816;2023-02-10T15:26:25;102772.63;;;8.17;94.29
68994;BME280;56054;50.968;5.816;2023-02-10T15:29:36;102783.28;;;8.11;94.31
68994;BME280;56054;50.968;5.816;2023-02-10T15:32:51;102779.28;;;8.06;94.68
68994;BME280;56054;50.968;5.816;2023-02-10T15:39:24;102780.66;;;8.02;97.33
68994;BME280;56054;50.968;5.816;2023-02-10T15:42:32;102791.75;;;8.01;98.10
68994;BME280;56054;50.968;5.816;2023-02-10T15:45:39;102790.84;;;8.01;98.55
68994;BME280;56054;50.968;5.816;2023-02-10T15:48:47;102794.75;;;7.97;98.83
68994;BME280;56054;50.968;5.816;2023-02-10T15:51:54;102787.25;;;7.91;99.42
68994;BME280;56054;50.968;5.816;2023-02-10T15:55:14;102790.63;;;7.90;100.00
68994;BME280;56054;50.968;5.816;2023-02-10T15:58:22;102791.03;;;7.86;100.00
68994;BME280;56054;50.968;5.816;2023-02-10T16:01:29;102797.44;;;7.90;100.00
68994;BME280;56054;50.968;5.816;2023-02-10T16:04:37;102791.31;;;7.81;100.00
68994;BME280;56054;50.968;5.816;2023-02-10T16:07:45;102781.09;;;7.82;100.00
68994;BME280;56054;50.968;5.816;2023-02-10T16:10:51;102794.00;;;7.74;100.00
68994;BME280;56054;50.968;5.816;2023-02-10T16:13:58;102792.09;;;7.64;100.00
68994;BME280;56054;50.968;5.816;2023-02-10T16:17:07;102797.50;;;7.58;100.00
68994;BME280;56054;50.968;5.816;2023-02-10T16:20:33;102787.59;;;7.54;100.00
68994;BME280;56054;50.968;5.816;2023-02-10T16:23:40;102782.16;;;7.44;100.00
68994;BME280;56054;50.968;5.816;2023-02-10T16:27:13;102783.66;;;7.42;100.00
68994;BME280;56054;50.968;5.816;2023-02-10T16:30:24;102783.84;;;7.27;100.00
68994;BME280;56054;50.968;5.816;2023-02-10T16:33:31;102788.50;;;7.23;100.00
68994;BME280;56054;50.968;5.816;2023-02-10T16:36:39;102783.59;;;7.17;100.00
68994;BME280;56054;50.968;5.816;2023-02-10T16:39:48;102787.41;;;7.05;100.00
68994;BME280;56054;50.968;5.816;2023-02-10T16:42:55;102793.56;;;6.98;100.00
68994;BME280;56054;50.968;5.816;2023-02-10T16:46:02;102778.63;;;6.96;100.00
68994;BME280;56054;50.968;5.816;2023-02-10T16:49:11;102789.44;;;6.84;100.00
68994;BME280;56054;50.968;5.816;2023-02-10T16:52:18;102797.63;;;6.80;100.00
68994;BME280;56054;50.968;5.816;2023-02-10T16:55:26;102782.13;;;6.80;100.00
68994;BME280;56054;50.968;5.816;2023-02-10T16:58:33;102787.75;;;6.69;100.00
68994;BME280;56054;50.968;5.816;2023-02-10T17:01:40;102788.00;;;6.63;100.00
68994;BME280;56054;50.968;5.816;2023-02-10T17:04:47;102796.09;;;6.67;100.00
68994;BME280;56054;50.968;5.816;2023-02-10T17:08:03;102792.06;;;6.61;100.00
68994;BME280;56054;50.968;5.816;2023-02-10T17:11:10;102797.38;;;6.63;100.00
68994;BME280;56054;50.968;5.816;2023-02-10T17:14:18;102791.31;;;6.62;100.00
68994;BME280;56054;50.968;5.816;2023-02-10T17:17:24;102802.06;;;6.58;100.00
68994;BME280;56054;50.968;5.816;2023-02-10T17:20:33;102806.81;;;6.62;100.00
68994;BME280;56054;50.968;5.816;2023-02-10T17:23:40;102790.78;;;6.58;100.00
68994;BME280;56054;50.968;5.816;2023-02-10T17:27:18;102804.28;;;6.55;100.00
68994;BME280;56054;50.968;5.816;2023-02-10T17:30:26;102799.31;;;6.57;100.00
68994;BME280;56054;50.968;5.816;2023-02-10T17:33:40;102808.16;;;6.59;100.00
68994;BME280;56054;50.968;5.816;2023-02-10T17:36:47;102809.16;;;6.68;100.00
68994;BME280;56054;50.968;5.816;2023-02-10T17:39:54;102818.41;;;6.66;100.00
68994;BME280;56054;50.968;5.816;2023-02-10T17:43:02;102827.94;;;6.74;100.00
68994;BME280;56054;50.968;5.816;2023-02-10T17:46:08;102827.41;;;6.70;100.00
68994;BME280;56054;50.968;5.816;2023-02-10T17:49:15;102835.06;;;6.61;100.00
68994;BME280;56054;50.968;5.816;2023-02-10T17:52:22;102807.38;;;6.60;100.00
68994;BME280;56054;50.968;5.816;2023-02-10T17:55:29;102793.94;;;6.55;100.00
68994;BME280;56054;50.968;5.816;2023-02-10T17:58:37;102825.66;;;6.61;100.00
68994;BME280;56054;50.968;5.816;2023-02-10T18:01:46;102824.38;;;6.58;100.00
68994;BME280;56054;50.968;5.816;2023-02-10T18:04:52;102823.66;;;6.59;100.00
68994;BME280;56054;50.968;5.816;2023-02-10T18:08:09;102813.72;;;6.55;100.00
68994;BME280;56054;50.968;5.816;2023-02-10T18:11:23;102808.00;;;6.50;100.00
68994;BME280;56054;50.968;5.816;2023-02-10T18:14:31;102802.19;;;6.44;100.00
68994;BME280;56054;50.968;5.816;2023-02-10T18:17:38;102797.59;;;6.41;100.00
68994;BME280;56054;50.968;5.816;2023-02-10T18:20:45;102789.31;;;6.37;100.00
68994;BME280;56054;50.968;5.816;2023-02-10T18:23:52;102797.97;;;6.37;100.00
68994;BME280;56054;50.968;5.816;2023-02-10T18:27:09;102788.78;;;6.32;100.00
68994;BME280;56054;50.968;5.816;2023-02-10T18:30:16;102796.13;;;6.36;100.00
68994;BME280;56054;50.968;5.816;2023-02-10T18:33:23;102784.72;;;6.34;100.00
68994;BME280;56054;50.968;5.816;2023-02-10T18:36:32;102781.38;;;6.35;100.00
68994;BME280;56054;50.968;5.816;2023-02-10T18:39:52;102767.56;;;6.35;100.00
68994;BME280;56054;50.968;5.816;2023-02-10T18:43:00;102789.47;;;6.38;100.00
68994;BME280;56054;50.968;5.816;2023-02-10T18:46:33;102790.56;;;6.40;100.00
68994;BME280;56054;50.968;5.816;2023-02-10T18:49:40;102788.75;;;6.39;100.00
68994;BME280;56054;50.968;5.816;2023-02-10T18:52:47;102790.50;;;6.48;100.00
68994;BME280;56054;50.968;5.816;2023-02-10T18:55:54;102770.09;;;6.42;100.00
68994;BME280;56054;50.968;5.816;2023-02-10T18:59:03;102774.75;;;6.37;100.00
68994;BME280;56054;50.968;5.816;2023-02-10T19:02:22;102779.00;;;6.37;100.00
68994;BME280;56054;50.968;5.816;2023-02-10T19:05:54;102765.91;;;6.35;100.00
68994;BME280;56054;50.968;5.816;2023-02-10T19:09:01;102774.22;;;6.33;100.00
68994;BME280;56054;50.968;5.816;2023-02-10T19:12:13;102775.13;;;6.33;100.00
68994;BME280;56054;50.968;5.816;2023-02-10T19:15:20;102757.97;;;6.34;100.00
68994;BME280;56054;50.968;5.816;2023-02-10T19:18:33;102747.47;;;6.32;100.00
68994;BME280;56054;50.968;5.816;2023-02-10T19:21:42;102752.66;;;6.32;100.00
68994;BME280;56054;50.968;5.816;2023-02-10T19:24:49;102755.22;;;6.32;100.00
68994;BME280;56054;50.968;5.816;2023-02-10T19:27:56;102756.91;;;6.32;100.00
68994;BME280;56054;50.968;5.816;2023-02-10T19:31:07;102765.03;;;6.28;100.00
68994;BME280;56054;50.968;5.816;2023-02-10T19:34:15;102755.81;;;6.30;100.00
68994;BME280;56054;50.968;5.816;2023-02-10T19:37:23;102752.13;;;6.28;100.00
68994;BME280;56054;50.968;5.816;2023-02-10T19:40:31;102756.53;;;6.29;100.00
68994;BME280;56054;50.968;5.816;2023-02-10T19:43:37;102752.78;;;6.34;100.00
68994;BME280;56054;50.968;5.816;2023-02-10T19:46:58;102747.47;;;6.32;100.00
68994;BME280;56054;50.968;5.816;2023-02-10T19:50:05;102762.41;;;6.35;100.00
68994;BME280;56054;50.968;5.816;2023-02-10T19:53:12;102754.06;;;6.37;100.00
68994;BME280;56054;50.968;5.816;2023-02-10T19:56:19;102756.28;;;6.41;100.00
68994;BME280;56054;50.968;5.816;2023-02-10T19:59:26;102747.00;;;6.43;100.00
68994;BME280;56054;50.968;5.816;2023-02-10T20:02:37;102747.94;;;6.44;100.00
68994;BME280;56054;50.968;5.816;2023-02-10T20:05:44;102748.09;;;6.46;100.00
68994;BME280;56054;50.968;5.816;2023-02-10T20:08:57;102743.69;;;6.45;100.00
68994;BME280;56054;50.968;5.816;2023-02-10T20:12:08;102744.03;;;6.48;100.00
68994;BME280;56054;50.968;5.816;2023-02-10T20:15:15;102741.84;;;6.43;100.00
68994;BME280;56054;50.968;5.816;2023-02-10T20:18:22;102749.38;;;6.49;100.00
68994;BME280;56054;50.968;5.816;2023-02-10T20:21:29;102745.69;;;6.47;100.00
68994;BME280;56054;50.968;5.816;2023-02-10T20:24:36;102742.88;;;6.53;100.00
68994;BME280;56054;50.968;5.816;2023-02-10T20:27:43;102739.94;;;6.50;100.00
68994;BME280;56054;50.968;5.816;2023-02-10T20:30:51;102738.84;;;6.48;100.00
68994;BME280;56054;50.968;5.816;2023-02-10T20:34:18;102740.28;;;6.53;100.00
68994;BME280;56054;50.968;5.816;2023-02-10T20:37:24;102741.97;;;6.52;100.00
68994;BME280;56054;50.968;5.816;2023-02-10T20:40:57;102739.38;;;6.52;100.00
68994;BME280;56054;50.968;5.816;2023-02-10T20:44:19;102743.44;;;6.50;100.00
68994;BME280;56054;50.968;5.816;2023-02-10T20:47:26;102745.31;;;6.51;100.00
68994;BME280;56054;50.968;5.816;2023-02-10T20:50:57;102736.78;;;6.52;100.00
68994;BME280;56054;50.968;5.816;2023-02-10T20:54:30;102736.78;;;6.52;100.00
68994;BME280;56054;50.968;5.816;2023-02-10T20:57:37;102735.31;;;6.54;100.00
68994;BME280;56054;50.968;5.816;2023-02-10T21:00:43;102744.16;;;6.56;100.00
68994;BME280;56054;50.968;5.816;2023-02-10T21:03:52;102748.16;;;6.61;100.00
68994;BME280;56054;50.968;5.816;2023-02-10T21:06:59;102737.25;;;6.64;100.00
68994;BME280;56054;50.968;5.816;2023-02-10T21:10:06;102729.31;;;6.62;100.00
68994;BME280;56054;50.968;5.816;2023-02-10T21:13:12;102736.47;;;6.65;100.00
68994;BME280;56054;50.968;5.816;2023-02-10T21:16:20;102730.97;;;6.62;100.00
68994;BME280;56054;50.968;5.816;2023-02-10T21:19:27;102728.56;;;6.63;100.00
68994;BME280;56054;50.968;5.816;2023-02-10T21:22:37;102741.50;;;6.63;100.00
68994;BME280;56054;50.968;5.816;2023-02-10T21:25:44;102738.16;;;6.64;100.00
68994;BME280;56054;50.968;5.816;2023-02-10T21:28:52;102739.63;;;6.62;100.00
68994;BME280;56054;50.968;5.816;2023-02-10T21:31:59;102743.13;;;6.63;100.00
68994;BME280;56054;50.968;5.816;2023-02-10T21:35:13;102748.47;;;6.64;100.00
68994;BME280;56054;50.968;5.816;2023-02-10T21:38:22;102749.25;;;6.63;100.00
68994;BME280;56054;50.968;5.816;2023-02-10T21:41:30;102761.41;;;6.64;100.00
68994;BME280;56054;50.968;5.816;2023-02-10T21:44:36;102751.25;;;6.66;100.00
68994;BME280;56054;50.968;5.816;2023-02-10T21:47:43;102736.91;;;6.61;100.00
68994;BME280;56054;50.968;5.816;2023-02-10T21:50:50;102752.75;;;6.64;100.00
68994;BME280;56054;50.968;5.816;2023-02-10T21:53:57;102755.47;;;6.65;100.00
68994;BME280;56054;50.968;5.816;2023-02-10T21:57:05;102752.41;;;6.61;100.00
68994;BME280;56054;50.968;5.816;2023-02-10T22:00:12;102757.56;;;6.61;100.00
68994;BME280;56054;50.968;5.816;2023-02-10T22:03:20;102752.03;;;6.58;100.00
68994;BME280;56054;50.968;5.816;2023-02-10T22:06:28;102751.47;;;6.60;100.00
68994;BME280;56054;50.968;5.816;2023-02-10T22:09:35;102754.03;;;6.60;100.00
68994;BME280;56054;50.968;5.816;2023-02-10T22:12:43;102745.97;;;6.57;100.00
68994;BME280;56054;50.968;5.816;2023-02-10T22:16:24;102735.81;;;6.59;100.00
68994;BME280;56054;50.968;5.816;2023-02-10T22:19:56;102741.38;;;6.55;100.00
68994;BME280;56054;50.968;5.816;2023-02-10T22:23:09;102741.03;;;6.52;100.00
68994;BME280;56054;50.968;5.816;2023-02-10T22:26:18;102743.97;;;6.55;100.00
68994;BME280;56054;50.968;5.816;2023-02-10T22:36:44;102732.19;;;6.50;100.00
68994;BME280;56054;50.968;5.816;2023-02-10T22:39:52;102717.47;;;6.49;100.00
68994;BME280;56054;50.968;5.816;2023-02-10T22:42:59;102724.63;;;6.51;100.00
68994;BME280;56054;50.968;5.816;2023-02-10T22:46:33;102704.69;;;6.50;100.00
68994;BME280;56054;50.968;5.816;2023-02-10T22:49:39;102703.78;;;6.50;100.00
68994;BME280;56054;50.968;5.816;2023-02-10T22:52:48;102719.28;;;6.50;100.00
68994;BME280;56054;50.968;5.816;2023-02-10T22:56:05;102717.03;;;6.53;100.00
68994;BME280;56054;50.968;5.816;2023-02-10T22:59:15;102739.56;;;6.54;100.00
68994;BME280;56054;50.968;5.816;2023-02-10T23:02:31;102747.44;;;6.55;100.00
68994;BME280;56054;50.968;5.816;2023-02-10T23:18:52;102742.94;;;6.46;100.00
68994;BME280;56054;50.968;5.816;2023-02-10T23:21:59;102741.84;;;6.43;100.00
68994;BME280;56054;50.968;5.816;2023-02-10T23:25:24;102730.59;;;6.43;100.00
68994;BME280;56054;50.968;5.816;2023-02-10T23:28:43;102739.69;;;6.39;100.00
